sensor_id;sensor_type;location;lat;lon;timestamp;temperature;humidity
25923;DHT22;13725;51.170;4.442;2024-03-06T00:01:53;9.50;99.90
25923;DHT22;13725;51.170;4.442;2024-03-06T00:04:19;9.40;99.90
25923;DHT22;13725;51.170;4.442;2024-03-06T00:06:45;9.40;99.90
25923;DHT22;13725;51.170;4.442;2024-03-06T00:09:11;9.40;99.90
25923;DHT22;13725;51.170;4.442;2024-03-06T00:11:37;9.30;99.90
25923;DHT22;13725;51.170;4.442;2024-03-06T00:14:03;9.30;99.90
25923;DHT22;13725;51.170;4.442;2024-03-06T00:16:31;9.30;99.90
25923;DHT22;13725;51.170;4.442;2024-03-06T00:18:57;9.30;99.90
25923;DHT22;13725;51.170;4.442;2024-03-06T00:21:23;9.20;99.90
25923;DHT22;13725;51.170;4.442;2024-03-06T00:23:48;9.20;99.90
25923;DHT22;13725;51.170;4.442;2024-03-06T00:26:14;9.30;99.90
25923;DHT22;13725;51.170;4.442;2024-03-06T00:28:40;9.20;99.90
25923;DHT22;13725;51.170;4.442;2024-03-06T00:31:06;9.20;99.90
25923;DHT22;13725;51.170;4.442;2024-03-06T00:33:31;9.10;99.90
25923;DHT22;13725;51.170;4.442;2024-03-06T00:35:57;9.20;99.90
25923;DHT22;13725;51.170;4.442;2024-03-06T00:38:23;9.00;99.90
25923;DHT22;13725;51.170;4.442;2024-03-06T00:40:49;8.90;99.90
25923;DHT22;13725;51.170;4.442;2024-03-06T00:43:14;8.80;99.90
25923;DHT22;13725;51.170;4.442;2024-03-06T00:45:40;8.70;99.90
25923;DHT22;13725;51.170;4.442;2024-03-06T00:48:06;8.80;99.90
25923;DHT22;13725;51.170;4.442;2024-03-06T00:50:32;8.60;99.90
25923;DHT22;13725;51.170;4.442;2024-03-06T00:52:58;8.60;99.90
25923;DHT22;13725;51.170;4.442;2024-03-06T00:55:24;8.50;99.90
25923;DHT22;13725;51.170;4.442;2024-03-06T00:57:50;8.40;99.90
25923;DHT22;13725;51.170;4.442;2024-03-06T01:00:16;8.40;99.90
25923;DHT22;13725;51.170;4.442;2024-03-06T01:02:42;8.40;99.90
25923;DHT22;13725;51.170;4.442;2024-03-06T01:05:07;8.30;99.90
25923;DHT22;13725;51.170;4.442;2024-03-06T01:07:37;8.20;99.90
25923;DHT22;13725;51.170;4.442;2024-03-06T01:10:04;8.20;99.90
25923;DHT22;13725;51.170;4.442;2024-03-06T01:12:35;8.20;99.90
25923;DHT22;13725;51.170;4.442;2024-03-06T01:15:01;8.10;99.90
25923;DHT22;13725;51.170;4.442;2024-03-06T01:17:27;8.00;99.90
25923;DHT22;13725;51.170;4.442;2024-03-06T01:19:52;8.00;99.90
25923;DHT22;13725;51.170;4.442;2024-03-06T01:22:18;7.90;99.90
25923;DHT22;13725;51.170;4.442;2024-03-06T01:24:44;7.80;99.90
25923;DHT22;13725;51.170;4.442;2024-03-06T01:27:10;7.90;99.90
25923;DHT22;13725;51.170;4.442;2024-03-06T01:29:36;7.80;99.90
25923;DHT22;13725;51.170;4.442;2024-03-06T01:32:02;7.70;99.90
25923;DHT22;13725;51.170;4.442;2024-03-06T01:34:27;7.60;99.90
25923;DHT22;13725;51.170;4.442;2024-03-06T01:36:53;7.50;99.90
25923;DHT22;13725;51.170;4.442;2024-03-06T01:39:19;7.50;99.90
25923;DHT22;13725;51.170;4.442;2024-03-06T01:41:46;7.40;99.90
25923;DHT22;13725;51.170;4.442;2024-03-06T01:44:13;7.40;99.90
25923;DHT22;13725;51.170;4.442;2024-03-06T01:46:39;7.30;99.90
25923;DHT22;13725;51.170;4.442;2024-03-06T01:49:04;7.30;99.90
25923;DHT22;13725;51.170;4.442;2024-03-06T01:51:32;7.20;99.90
25923;DHT22;13725;51.170;4.442;2024-03-06T01:53:57;7.10;99.90
25923;DHT22;13725;51.170;4.442;2024-03-06T01:56:24;7.10;99.90
25923;DHT22;13725;51.170;4.442;2024-03-06T01:58:50;7.00;99.90
25923;DHT22;13725;51.170;4.442;2024-03-06T02:01:16;7.00;99.90
25923;DHT22;13725;51.170;4.442;2024-03-06T02:03:43;7.10;99.90
25923;DHT22;13725;51.170;4.442;2024-03-06T02:06:10;6.90;99.90
25923;DHT22;13725;51.170;4.442;2024-03-06T02:08:37;7.00;99.90
25923;DHT22;13725;51.170;4.442;2024-03-06T02:11:03;6.90;99.90
25923;DHT22;13725;51.170;4.442;2024-03-06T02:13:29;6.80;99.90
25923;DHT22;13725;51.170;4.442;2024-03-06T02:15:55;6.80;99.90
25923;DHT22;13725;51.170;4.442;2024-03-06T02:18:21;6.80;99.90
25923;DHT22;13725;51.170;4.442;2024-03-06T02:20:47;6.80;99.90
25923;DHT22;13725;51.170;4.442;2024-03-06T02:23:15;6.80;99.90
25923;DHT22;13725;51.170;4.442;2024-03-06T02:25:43;6.70;99.90
25923;DHT22;13725;51.170;4.442;2024-03-06T02:28:09;6.70;99.90
25923;DHT22;13725;51.170;4.442;2024-03-06T02:30:35;6.60;99.90
25923;DHT22;13725;51.170;4.442;2024-03-06T02:33:05;6.60;99.90
25923;DHT22;13725;51.170;4.442;2024-03-06T02:35:35;6.60;99.90
25923;DHT22;13725;51.170;4.442;2024-03-06T02:38:02;6.60;99.90
25923;DHT22;13725;51.170;4.442;2024-03-06T02:40:30;6.50;99.90
25923;DHT22;13725;51.170;4.442;2024-03-06T02:42:56;6.50;99.90
25923;DHT22;13725;51.170;4.442;2024-03-06T02:45:22;6.70;99.90
25923;DHT22;13725;51.170;4.442;2024-03-06T02:47:48;6.50;99.90
25923;DHT22;13725;51.170;4.442;2024-03-06T02:50:14;6.40;99.90
25923;DHT22;13725;51.170;4.442;2024-03-06T02:52:40;6.40;99.90
25923;DHT22;13725;51.170;4.442;2024-03-06T02:55:07;6.40;99.90
25923;DHT22;13725;51.170;4.442;2024-03-06T02:57:32;6.40;99.90
25923;DHT22;13725;51.170;4.442;2024-03-06T02:59:58;6.40;99.90
25923;DHT22;13725;51.170;4.442;2024-03-06T03:02:25;6.40;99.90
25923;DHT22;13725;51.170;4.442;2024-03-06T03:04:51;6.40;99.90
25923;DHT22;13725;51.170;4.442;2024-03-06T03:07:20;6.30;99.90
25923;DHT22;13725;51.170;4.442;2024-03-06T03:09:46;6.20;99.90
25923;DHT22;13725;51.170;4.442;2024-03-06T03:12:13;6.20;99.90
25923;DHT22;13725;51.170;4.442;2024-03-06T03:14:42;6.20;99.90
25923;DHT22;13725;51.170;4.442;2024-03-06T03:17:08;6.20;99.90
25923;DHT22;13725;51.170;4.442;2024-03-06T03:19:34;6.10;99.90
25923;DHT22;13725;51.170;4.442;2024-03-06T03:22:00;6.30;99.90
25923;DHT22;13725;51.170;4.442;2024-03-06T03:24:30;6.10;99.90
25923;DHT22;13725;51.170;4.442;2024-03-06T03:26:55;6.30;99.90
25923;DHT22;13725;51.170;4.442;2024-03-06T03:29:21;6.20;99.90
25923;DHT22;13725;51.170;4.442;2024-03-06T03:31:47;6.30;99.90
25923;DHT22;13725;51.170;4.442;2024-03-06T03:34:13;6.10;99.90
25923;DHT22;13725;51.170;4.442;2024-03-06T03:36:43;6.10;99.90
25923;DHT22;13725;51.170;4.442;2024-03-06T03:39:12;6.00;99.90
25923;DHT22;13725;51.170;4.442;2024-03-06T03:41:45;6.10;99.90
25923;DHT22;13725;51.170;4.442;2024-03-06T03:44:15;5.90;99.90
25923;DHT22;13725;51.170;4.442;2024-03-06T03:46:41;5.90;99.90
25923;DHT22;13725;51.170;4.442;2024-03-06T03:49:07;6.00;99.90
25923;DHT22;13725;51.170;4.442;2024-03-06T03:51:34;6.00;99.90
25923;DHT22;13725;51.170;4.442;2024-03-06T03:54:00;5.80;99.90
25923;DHT22;13725;51.170;4.442;2024-03-06T03:56:26;5.80;99.90
25923;DHT22;13725;51.170;4.442;2024-03-06T03:58:52;5.70;99.90
25923;DHT22;13725;51.170;4.442;2024-03-06T04:01:18;5.60;99.90
25923;DHT22;13725;51.170;4.442;2024-03-06T04:03:44;5.60;99.90
25923;DHT22;13725;51.170;4.442;2024-03-06T04:06:12;5.60;99.90
25923;DHT22;13725;51.170;4.442;2024-03-06T04:08:38;5.70;99.90
25923;DHT22;13725;51.170;4.442;2024-03-06T04:11:04;5.60;99.90
25923;DHT22;13725;51.170;4.442;2024-03-06T04:13:30;5.60;99.90
25923;DHT22;13725;51.170;4.442;2024-03-06T04:15:55;5.70;99.90
25923;DHT22;13725;51.170;4.442;2024-03-06T04:18:22;5.70;99.90
25923;DHT22;13725;51.170;4.442;2024-03-06T04:20:47;5.80;99.90
25923;DHT22;13725;51.170;4.442;2024-03-06T04:23:13;5.70;99.90
25923;DHT22;13725;51.170;4.442;2024-03-06T04:25:38;5.70;99.90
25923;DHT22;13725;51.170;4.442;2024-03-06T04:28:05;5.70;99.90
25923;DHT22;13725;51.170;4.442;2024-03-06T04:30:33;5.60;99.90
25923;DHT22;13725;51.170;4.442;2024-03-06T04:32:59;5.80;99.90
25923;DHT22;13725;51.170;4.442;2024-03-06T04:35:25;5.70;99.90
25923;DHT22;13725;51.170;4.442;2024-03-06T04:37:51;5.70;99.90
25923;DHT22;13725;51.170;4.442;2024-03-06T04:40:16;5.60;99.90
25923;DHT22;13725;51.170;4.442;2024-03-06T04:42:46;5.60;99.90
25923;DHT22;13725;51.170;4.442;2024-03-06T04:45:15;5.80;99.90
25923;DHT22;13725;51.170;4.442;2024-03-06T04:47:42;5.60;99.90
25923;DHT22;13725;51.170;4.442;2024-03-06T04:50:12;5.60;99.90
25923;DHT22;13725;51.170;4.442;2024-03-06T04:52:41;5.40;99.90
25923;DHT22;13725;51.170;4.442;2024-03-06T04:55:08;5.50;99.90
25923;DHT22;13725;51.170;4.442;2024-03-06T04:57:39;5.40;99.90
25923;DHT22;13725;51.170;4.442;2024-03-06T05:00:09;5.30;99.90
25923;DHT22;13725;51.170;4.442;2024-03-06T05:02:35;5.20;99.90
25923;DHT22;13725;51.170;4.442;2024-03-06T05:05:02;5.30;99.90
25923;DHT22;13725;51.170;4.442;2024-03-06T05:07:29;5.10;99.90
25923;DHT22;13725;51.170;4.442;2024-03-06T05:09:56;5.20;99.90
25923;DHT22;13725;51.170;4.442;2024-03-06T05:12:23;5.10;99.90
25923;DHT22;13725;51.170;4.442;2024-03-06T05:14:50;5.10;99.90
25923;DHT22;13725;51.170;4.442;2024-03-06T05:17:15;5.20;99.90
25923;DHT22;13725;51.170;4.442;2024-03-06T05:19:41;5.20;99.90
25923;DHT22;13725;51.170;4.442;2024-03-06T05:22:07;5.20;99.90
25923;DHT22;13725;51.170;4.442;2024-03-06T05:24:33;5.00;99.90
25923;DHT22;13725;51.170;4.442;2024-03-06T05:26:59;5.00;99.90
25923;DHT22;13725;51.170;4.442;2024-03-06T05:29:24;5.10;99.90
25923;DHT22;13725;51.170;4.442;2024-03-06T05:31:50;4.90;99.90
25923;DHT22;13725;51.170;4.442;2024-03-06T05:34:16;5.00;99.90
25923;DHT22;13725;51.170;4.442;2024-03-06T05:36:41;5.10;99.90
25923;DHT22;13725;51.170;4.442;2024-03-06T05:39:07;5.00;99.90
25923;DHT22;13725;51.170;4.442;2024-03-06T05:41:38;5.00;99.90
25923;DHT22;13725;51.170;4.442;2024-03-06T05:44:05;5.00;99.90
25923;DHT22;13725;51.170;4.442;2024-03-06T05:46:31;5.00;99.90
25923;DHT22;13725;51.170;4.442;2024-03-06T05:48:57;5.10;99.90
25923;DHT22;13725;51.170;4.442;2024-03-06T05:51:22;5.20;99.90
25923;DHT22;13725;51.170;4.442;2024-03-06T05:53:48;5.20;99.90
25923;DHT22;13725;51.170;4.442;2024-03-06T05:56:14;5.00;99.90
25923;DHT22;13725;51.170;4.442;2024-03-06T05:58:39;5.00;99.90
25923;DHT22;13725;51.170;4.442;2024-03-06T06:01:05;5.00;99.90
25923;DHT22;13725;51.170;4.442;2024-03-06T06:03:31;5.00;99.90
25923;DHT22;13725;51.170;4.442;2024-03-06T06:05:57;5.10;99.90
25923;DHT22;13725;51.170;4.442;2024-03-06T06:08:24;5.20;99.90
25923;DHT22;13725;51.170;4.442;2024-03-06T06:10:50;5.40;99.90
25923;DHT22;13725;51.170;4.442;2024-03-06T06:13:18;5.40;99.90
25923;DHT22;13725;51.170;4.442;2024-03-06T06:15:44;5.30;99.90
25923;DHT22;13725;51.170;4.442;2024-03-06T06:18:09;5.30;99.90
25923;DHT22;13725;51.170;4.442;2024-03-06T06:20:35;5.60;99.90
25923;DHT22;13725;51.170;4.442;2024-03-06T06:23:01;5.50;99.90
25923;DHT22;13725;51.170;4.442;2024-03-06T06:25:27;5.50;99.90
25923;DHT22;13725;51.170;4.442;2024-03-06T06:27:53;5.50;99.90
25923;DHT22;13725;51.170;4.442;2024-03-06T06:30:19;5.80;99.90
25923;DHT22;13725;51.170;4.442;2024-03-06T06:32:45;5.60;99.90
25923;DHT22;13725;51.170;4.442;2024-03-06T06:35:10;5.70;99.90
25923;DHT22;13725;51.170;4.442;2024-03-06T06:37:38;5.70;99.90
25923;DHT22;13725;51.170;4.442;2024-03-06T06:40:06;6.00;99.90
25923;DHT22;13725;51.170;4.442;2024-03-06T06:42:33;5.90;99.90
25923;DHT22;13725;51.170;4.442;2024-03-06T06:44:59;6.00;99.90
25923;DHT22;13725;51.170;4.442;2024-03-06T06:47:26;6.10;99.90
25923;DHT22;13725;51.170;4.442;2024-03-06T06:49:52;6.20;99.90
25923;DHT22;13725;51.170;4.442;2024-03-06T06:52:18;6.40;99.90
25923;DHT22;13725;51.170;4.442;2024-03-06T06:54:44;6.60;99.90
25923;DHT22;13725;51.170;4.442;2024-03-06T06:57:10;6.90;99.90
25923;DHT22;13725;51.170;4.442;2024-03-06T06:59:36;6.90;99.90
25923;DHT22;13725;51.170;4.442;2024-03-06T07:02:02;7.00;99.90
25923;DHT22;13725;51.170;4.442;2024-03-06T07:04:28;7.20;99.90
25923;DHT22;13725;51.170;4.442;2024-03-06T07:06:54;7.40;99.90
25923;DHT22;13725;51.170;4.442;2024-03-06T07:09:20;7.60;99.90
25923;DHT22;13725;51.170;4.442;2024-03-06T07:11:45;7.60;99.90
25923;DHT22;13725;51.170;4.442;2024-03-06T07:14:14;7.70;99.90
25923;DHT22;13725;51.170;4.442;2024-03-06T07:16:46;7.50;99.90
25923;DHT22;13725;51.170;4.442;2024-03-06T07:19:12;7.70;99.90
25923;DHT22;13725;51.170;4.442;2024-03-06T07:21:38;8.30;99.90
25923;DHT22;13725;51.170;4.442;2024-03-06T07:24:05;9.20;99.90
25923;DHT22;13725;51.170;4.442;2024-03-06T07:26:33;10.00;99.90
25923;DHT22;13725;51.170;4.442;2024-03-06T07:29:00;10.90;99.90
25923;DHT22;13725;51.170;4.442;2024-03-06T07:31:26;11.50;99.90
25923;DHT22;13725;51.170;4.442;2024-03-06T07:33:52;11.60;99.90
25923;DHT22;13725;51.170;4.442;2024-03-06T07:36:19;11.50;99.90
25923;DHT22;13725;51.170;4.442;2024-03-06T07:38:45;11.30;99.90
25923;DHT22;13725;51.170;4.442;2024-03-06T07:41:11;11.20;99.90
25923;DHT22;13725;51.170;4.442;2024-03-06T07:43:37;11.10;99.90
25923;DHT22;13725;51.170;4.442;2024-03-06T07:46:04;11.20;99.90
25923;DHT22;13725;51.170;4.442;2024-03-06T07:48:37;11.50;99.90
25923;DHT22;13725;51.170;4.442;2024-03-06T07:51:02;11.60;99.90
25923;DHT22;13725;51.170;4.442;2024-03-06T07:53:28;11.60;99.90
25923;DHT22;13725;51.170;4.442;2024-03-06T07:55:54;12.10;99.90
25923;DHT22;13725;51.170;4.442;2024-03-06T07:58:19;12.60;99.90
25923;DHT22;13725;51.170;4.442;2024-03-06T08:00:46;13.00;99.90
25923;DHT22;13725;51.170;4.442;2024-03-06T08:03:13;13.20;99.90
25923;DHT22;13725;51.170;4.442;2024-03-06T08:05:39;13.30;99.90
25923;DHT22;13725;51.170;4.442;2024-03-06T08:08:05;13.20;99.90
25923;DHT22;13725;51.170;4.442;2024-03-06T08:10:31;13.20;99.90
25923;DHT22;13725;51.170;4.442;2024-03-06T08:13:01;13.10;99.90
25923;DHT22;13725;51.170;4.442;2024-03-06T08:15:27;13.70;99.90
25923;DHT22;13725;51.170;4.442;2024-03-06T08:17:52;14.20;99.90
25923;DHT22;13725;51.170;4.442;2024-03-06T08:20:18;14.90;99.90
25923;DHT22;13725;51.170;4.442;2024-03-06T08:22:44;15.40;99.90
25923;DHT22;13725;51.170;4.442;2024-03-06T08:25:11;15.80;99.90
25923;DHT22;13725;51.170;4.442;2024-03-06T08:27:39;17.00;99.90
25923;DHT22;13725;51.170;4.442;2024-03-06T08:30:07;18.40;99.90
25923;DHT22;13725;51.170;4.442;2024-03-06T08:32:34;19.50;99.90
25923;DHT22;13725;51.170;4.442;2024-03-06T08:35:09;20.80;99.90
25923;DHT22;13725;51.170;4.442;2024-03-06T08:37:41;22.60;99.90
25923;DHT22;13725;51.170;4.442;2024-03-06T08:40:10;23.60;99.90
25923;DHT22;13725;51.170;4.442;2024-03-06T08:42:44;24.70;98.00
25923;DHT22;13725;51.170;4.442;2024-03-06T08:45:10;24.50;94.00
25923;DHT22;13725;51.170;4.442;2024-03-06T08:47:36;24.20;93.90
25923;DHT22;13725;51.170;4.442;2024-03-06T08:50:03;24.30;93.20
25923;DHT22;13725;51.170;4.442;2024-03-06T08:52:29;24.90;92.50
25923;DHT22;13725;51.170;4.442;2024-03-06T08:54:58;25.90;90.80
25923;DHT22;13725;51.170;4.442;2024-03-06T08:57:25;26.50;87.80
25923;DHT22;13725;51.170;4.442;2024-03-06T08:59:54;27.10;84.10
25923;DHT22;13725;51.170;4.442;2024-03-06T09:02:20;27.50;81.00
25923;DHT22;13725;51.170;4.442;2024-03-06T09:04:46;27.80;78.90
25923;DHT22;13725;51.170;4.442;2024-03-06T09:07:13;27.60;74.90
25923;DHT22;13725;51.170;4.442;2024-03-06T09:09:39;27.90;76.40
25923;DHT22;13725;51.170;4.442;2024-03-06T09:12:06;27.90;72.90
25923;DHT22;13725;51.170;4.442;2024-03-06T09:14:33;27.80;72.30
25923;DHT22;13725;51.170;4.442;2024-03-06T09:16:59;27.90;72.50
25923;DHT22;13725;51.170;4.442;2024-03-06T09:19:25;28.30;71.40
25923;DHT22;13725;51.170;4.442;2024-03-06T09:21:51;28.80;70.60
25923;DHT22;13725;51.170;4.442;2024-03-06T09:24:17;29.40;70.20
25923;DHT22;13725;51.170;4.442;2024-03-06T09:26:47;29.10;67.10
25923;DHT22;13725;51.170;4.442;2024-03-06T09:29:13;28.20;69.40
25923;DHT22;13725;51.170;4.442;2024-03-06T09:31:38;28.70;69.10
25923;DHT22;13725;51.170;4.442;2024-03-06T09:34:04;29.10;67.50
25923;DHT22;13725;51.170;4.442;2024-03-06T09:36:30;29.80;67.60
25923;DHT22;13725;51.170;4.442;2024-03-06T09:38:58;30.70;65.80
25923;DHT22;13725;51.170;4.442;2024-03-06T09:41:24;30.50;62.40
25923;DHT22;13725;51.170;4.442;2024-03-06T09:43:50;30.30;63.30
25923;DHT22;13725;51.170;4.442;2024-03-06T09:46:17;30.60;63.80
25923;DHT22;13725;51.170;4.442;2024-03-06T09:48:47;30.50;63.00
25923;DHT22;13725;51.170;4.442;2024-03-06T09:51:13;31.00;63.00
25923;DHT22;13725;51.170;4.442;2024-03-06T09:53:42;31.60;61.80
25923;DHT22;13725;51.170;4.442;2024-03-06T09:56:10;31.70;61.40
25923;DHT22;13725;51.170;4.442;2024-03-06T09:58:36;31.70;60.50
25923;DHT22;13725;51.170;4.442;2024-03-06T10:01:02;31.70;60.30
25923;DHT22;13725;51.170;4.442;2024-03-06T10:03:30;32.30;59.10
25923;DHT22;13725;51.170;4.442;2024-03-06T10:05:55;32.40;59.10
25923;DHT22;13725;51.170;4.442;2024-03-06T10:08:22;32.70;58.50
25923;DHT22;13725;51.170;4.442;2024-03-06T10:10:49;32.10;57.50
25923;DHT22;13725;51.170;4.442;2024-03-06T10:13:18;31.40;57.20
25923;DHT22;13725;51.170;4.442;2024-03-06T10:15:57;30.00;58.90
25923;DHT22;13725;51.170;4.442;2024-03-06T10:18:27;29.70;60.20
25923;DHT22;13725;51.170;4.442;2024-03-06T10:20:52;29.20;60.10
25923;DHT22;13725;51.170;4.442;2024-03-06T10:23:19;28.80;60.40
25923;DHT22;13725;51.170;4.442;2024-03-06T10:25:50;28.00;61.00
25923;DHT22;13725;51.170;4.442;2024-03-06T10:28:23;27.80;62.00
25923;DHT22;13725;51.170;4.442;2024-03-06T10:30:50;28.70;61.20
25923;DHT22;13725;51.170;4.442;2024-03-06T10:33:17;29.40;60.70
25923;DHT22;13725;51.170;4.442;2024-03-06T10:35:47;30.60;60.00
25923;DHT22;13725;51.170;4.442;2024-03-06T10:38:19;30.50;59.40
25923;DHT22;13725;51.170;4.442;2024-03-06T10:40:45;29.20;59.60
25923;DHT22;13725;51.170;4.442;2024-03-06T10:43:11;27.90;61.30
25923;DHT22;13725;51.170;4.442;2024-03-06T10:45:50;27.80;60.40
25923;DHT22;13725;51.170;4.442;2024-03-06T10:48:18;27.10;61.70
25923;DHT22;13725;51.170;4.442;2024-03-06T10:50:46;27.60;62.40
25923;DHT22;13725;51.170;4.442;2024-03-06T10:53:15;29.10;60.40
25923;DHT22;13725;51.170;4.442;2024-03-06T10:55:43;30.60;59.30
25923;DHT22;13725;51.170;4.442;2024-03-06T10:58:10;30.40;57.30
25923;DHT22;13725;51.170;4.442;2024-03-06T11:00:38;30.10;58.70
25923;DHT22;13725;51.170;4.442;2024-03-06T11:03:08;30.50;58.20
25923;DHT22;13725;51.170;4.442;2024-03-06T11:05:35;31.90;58.20
25923;DHT22;13725;51.170;4.442;2024-03-06T11:08:03;32.80;56.90
25923;DHT22;13725;51.170;4.442;2024-03-06T11:10:35;33.20;56.70
25923;DHT22;13725;51.170;4.442;2024-03-06T11:13:02;33.00;55.40
25923;DHT22;13725;51.170;4.442;2024-03-06T11:15:31;31.40;56.30
25923;DHT22;13725;51.170;4.442;2024-03-06T11:17:57;30.70;57.00
25923;DHT22;13725;51.170;4.442;2024-03-06T11:20:23;29.80;57.90
25923;DHT22;13725;51.170;4.442;2024-03-06T11:28:18;33.20;55.70
25923;DHT22;13725;51.170;4.442;2024-03-06T11:30:45;34.40;54.00
25923;DHT22;13725;51.170;4.442;2024-03-06T11:33:14;35.80;52.70
25923;DHT22;13725;51.170;4.442;2024-03-06T11:35:42;36.60;51.20
25923;DHT22;13725;51.170;4.442;2024-03-06T11:38:17;35.80;49.30
25923;DHT22;13725;51.170;4.442;2024-03-06T11:40:48;34.60;50.00
25923;DHT22;13725;51.170;4.442;2024-03-06T11:43:26;33.90;50.30
25923;DHT22;13725;51.170;4.442;2024-03-06T11:45:53;33.70;51.20
25923;DHT22;13725;51.170;4.442;2024-03-06T11:48:18;33.60;51.20
25923;DHT22;13725;51.170;4.442;2024-03-06T11:50:47;32.90;51.20
25923;DHT22;13725;51.170;4.442;2024-03-06T11:53:16;32.20;51.90
25923;DHT22;13725;51.170;4.442;2024-03-06T11:55:43;31.80;51.10
25923;DHT22;13725;51.170;4.442;2024-03-06T11:58:08;32.00;50.80
25923;DHT22;13725;51.170;4.442;2024-03-06T12:00:37;30.70;52.70
25923;DHT22;13725;51.170;4.442;2024-03-06T12:03:03;31.00;53.40
25923;DHT22;13725;51.170;4.442;2024-03-06T12:05:31;31.70;52.50
25923;DHT22;13725;51.170;4.442;2024-03-06T12:07:56;31.70;52.00
25923;DHT22;13725;51.170;4.442;2024-03-06T12:10:22;30.20;52.60
25923;DHT22;13725;51.170;4.442;2024-03-06T12:12:48;28.30;55.20
25923;DHT22;13725;51.170;4.442;2024-03-06T12:15:14;26.70;57.50
25923;DHT22;13725;51.170;4.442;2024-03-06T12:17:48;25.80;59.50
25923;DHT22;13725;51.170;4.442;2024-03-06T12:20:17;25.10;61.50
25923;DHT22;13725;51.170;4.442;2024-03-06T12:22:53;24.50;62.80
25923;DHT22;13725;51.170;4.442;2024-03-06T12:25:25;23.80;64.00
25923;DHT22;13725;51.170;4.442;2024-03-06T12:27:54;23.50;65.90
25923;DHT22;13725;51.170;4.442;2024-03-06T12:30:21;24.50;64.60
25923;DHT22;13725;51.170;4.442;2024-03-06T12:33:00;25.10;61.90
25923;DHT22;13725;51.170;4.442;2024-03-06T12:35:30;24.70;61.60
25923;DHT22;13725;51.170;4.442;2024-03-06T12:37:56;23.30;64.10
25923;DHT22;13725;51.170;4.442;2024-03-06T12:40:23;22.80;65.90
25923;DHT22;13725;51.170;4.442;2024-03-06T12:42:49;22.40;66.70
25923;DHT22;13725;51.170;4.442;2024-03-06T12:45:20;22.10;66.90
25923;DHT22;13725;51.170;4.442;2024-03-06T12:47:47;22.60;67.00
25923;DHT22;13725;51.170;4.442;2024-03-06T12:50:16;23.00;64.70
25923;DHT22;13725;51.170;4.442;2024-03-06T12:52:42;22.40;65.10
25923;DHT22;13725;51.170;4.442;2024-03-06T12:55:11;21.80;67.40
25923;DHT22;13725;51.170;4.442;2024-03-06T12:57:37;21.10;70.20
25923;DHT22;13725;51.170;4.442;2024-03-06T13:00:03;20.90;71.20
25923;DHT22;13725;51.170;4.442;2024-03-06T13:02:33;20.70;72.30
25923;DHT22;13725;51.170;4.442;2024-03-06T13:04:58;20.60;72.60
25923;DHT22;13725;51.170;4.442;2024-03-06T13:07:24;20.40;73.10
25923;DHT22;13725;51.170;4.442;2024-03-06T13:09:52;19.80;74.20
25923;DHT22;13725;51.170;4.442;2024-03-06T13:12:18;19.60;76.20
25923;DHT22;13725;51.170;4.442;2024-03-06T13:14:44;19.30;77.80
25923;DHT22;13725;51.170;4.442;2024-03-06T13:17:09;19.20;78.30
25923;DHT22;13725;51.170;4.442;2024-03-06T13:19:35;19.20;79.40
25923;DHT22;13725;51.170;4.442;2024-03-06T13:22:01;19.10;81.00
25923;DHT22;13725;51.170;4.442;2024-03-06T13:24:26;18.90;80.20
25923;DHT22;13725;51.170;4.442;2024-03-06T13:26:52;18.90;81.00
25923;DHT22;13725;51.170;4.442;2024-03-06T13:29:18;18.80;80.70
25923;DHT22;13725;51.170;4.442;2024-03-06T13:31:43;18.70;81.40
25923;DHT22;13725;51.170;4.442;2024-03-06T13:34:09;18.40;82.60
25923;DHT22;13725;51.170;4.442;2024-03-06T13:36:35;18.30;83.00
25923;DHT22;13725;51.170;4.442;2024-03-06T13:39:00;17.80;85.30
25923;DHT22;13725;51.170;4.442;2024-03-06T13:41:26;17.50;87.70
25923;DHT22;13725;51.170;4.442;2024-03-06T13:43:52;17.30;89.50
25923;DHT22;13725;51.170;4.442;2024-03-06T13:46:17;17.40;87.70
25923;DHT22;13725;51.170;4.442;2024-03-06T13:48:43;17.50;86.60
25923;DHT22;13725;51.170;4.442;2024-03-06T13:51:09;17.60;85.00
25923;DHT22;13725;51.170;4.442;2024-03-06T13:53:35;17.70;85.20
25923;DHT22;13725;51.170;4.442;2024-03-06T13:56:02;17.80;83.80
25923;DHT22;13725;51.170;4.442;2024-03-06T13:58:28;17.90;85.20
25923;DHT22;13725;51.170;4.442;2024-03-06T14:00:53;18.60;84.80
25923;DHT22;13725;51.170;4.442;2024-03-06T14:03:19;20.30;80.20
25923;DHT22;13725;51.170;4.442;2024-03-06T14:05:45;22.20;72.60
25923;DHT22;13725;51.170;4.442;2024-03-06T14:08:11;23.30;67.20
25923;DHT22;13725;51.170;4.442;2024-03-06T14:10:40;23.50;66.60
25923;DHT22;13725;51.170;4.442;2024-03-06T14:13:06;23.40;65.30
25923;DHT22;13725;51.170;4.442;2024-03-06T14:15:33;23.00;65.30
25923;DHT22;13725;51.170;4.442;2024-03-06T14:17:58;22.50;66.30
25923;DHT22;13725;51.170;4.442;2024-03-06T14:20:24;22.10;68.80
25923;DHT22;13725;51.170;4.442;2024-03-06T14:22:51;22.30;67.60
25923;DHT22;13725;51.170;4.442;2024-03-06T14:25:17;23.00;67.10
25923;DHT22;13725;51.170;4.442;2024-03-06T14:27:43;23.50;65.40
25923;DHT22;13725;51.170;4.442;2024-03-06T14:30:09;23.60;64.80
25923;DHT22;13725;51.170;4.442;2024-03-06T14:32:37;23.50;64.90
25923;DHT22;13725;51.170;4.442;2024-03-06T14:35:04;23.00;64.50
25923;DHT22;13725;51.170;4.442;2024-03-06T14:37:29;22.50;66.00
25923;DHT22;13725;51.170;4.442;2024-03-06T14:39:55;21.90;67.10
25923;DHT22;13725;51.170;4.442;2024-03-06T14:42:21;21.20;68.90
25923;DHT22;13725;51.170;4.442;2024-03-06T14:44:46;20.70;69.90
25923;DHT22;13725;51.170;4.442;2024-03-06T14:47:13;19.50;74.70
25923;DHT22;13725;51.170;4.442;2024-03-06T14:49:47;18.90;79.20
25923;DHT22;13725;51.170;4.442;2024-03-06T14:52:13;18.40;80.30
25923;DHT22;13725;51.170;4.442;2024-03-06T14:54:40;18.00;84.30
25923;DHT22;13725;51.170;4.442;2024-03-06T14:57:07;17.40;88.40
25923;DHT22;13725;51.170;4.442;2024-03-06T14:59:33;16.90;90.60
25923;DHT22;13725;51.170;4.442;2024-03-06T15:01:59;16.70;90.60
25923;DHT22;13725;51.170;4.442;2024-03-06T15:04:24;16.40;90.80
25923;DHT22;13725;51.170;4.442;2024-03-06T15:06:50;16.20;91.20
25923;DHT22;13725;51.170;4.442;2024-03-06T15:09:16;16.10;91.80
25923;DHT22;13725;51.170;4.442;2024-03-06T15:11:48;15.90;92.70
25923;DHT22;13725;51.170;4.442;2024-03-06T15:14:14;15.80;93.10
25923;DHT22;13725;51.170;4.442;2024-03-06T15:16:39;15.70;92.20
25923;DHT22;13725;51.170;4.442;2024-03-06T15:19:06;15.60;93.70
25923;DHT22;13725;51.170;4.442;2024-03-06T15:21:32;15.50;92.70
25923;DHT22;13725;51.170;4.442;2024-03-06T15:23:58;15.40;93.30
25923;DHT22;13725;51.170;4.442;2024-03-06T15:26:23;15.20;93.00
25923;DHT22;13725;51.170;4.442;2024-03-06T15:28:49;15.20;94.60
25923;DHT22;13725;51.170;4.442;2024-03-06T15:31:15;15.30;95.70
25923;DHT22;13725;51.170;4.442;2024-03-06T15:33:40;15.20;95.20
25923;DHT22;13725;51.170;4.442;2024-03-06T15:36:07;15.20;93.70
25923;DHT22;13725;51.170;4.442;2024-03-06T15:38:33;15.20;93.90
25923;DHT22;13725;51.170;4.442;2024-03-06T15:40:59;15.30;93.30